sensor_id;sensor_type;location;lat;lon;timestamp;temperature;humidity
51793;DHT22;37850;53.178;6.376;2024-02-26T00:01:50;3.30;99.90
51793;DHT22;37850;53.178;6.376;2024-02-26T00:04:16;3.20;99.90
51793;DHT22;37850;53.178;6.376;2024-02-26T00:06:41;3.20;99.90
51793;DHT22;37850;53.178;6.376;2024-02-26T00:09:08;3.20;99.90
51793;DHT22;37850;53.178;6.376;2024-02-26T00:11:35;3.20;99.90
51793;DHT22;37850;53.178;6.376;2024-02-26T00:14:01;3.20;99.90
51793;DHT22;37850;53.178;6.376;2024-02-26T00:16:26;3.20;99.90
51793;DHT22;37850;53.178;6.376;2024-02-26T00:18:52;3.20;99.90
51793;DHT22;37850;53.178;6.376;2024-02-26T00:21:18;3.20;99.90
51793;DHT22;37850;53.178;6.376;2024-02-26T00:23:44;3.10;99.90
51793;DHT22;37850;53.178;6.376;2024-02-26T00:26:09;3.10;99.90
51793;DHT22;37850;53.178;6.376;2024-02-26T00:28:36;3.20;99.90
51793;DHT22;37850;53.178;6.376;2024-02-26T00:31:02;3.10;99.90
51793;DHT22;37850;53.178;6.376;2024-02-26T00:33:28;3.10;99.90
51793;DHT22;37850;53.178;6.376;2024-02-26T00:35:54;3.10;99.90
51793;DHT22;37850;53.178;6.376;2024-02-26T00:38:20;3.10;99.90
51793;DHT22;37850;53.178;6.376;2024-02-26T00:40:46;3.10;99.90
51793;DHT22;37850;53.178;6.376;2024-02-26T00:43:12;3.10;99.90
51793;DHT22;37850;53.178;6.376;2024-02-26T00:45:38;4.50;99.90
51793;DHT22;37850;53.178;6.376;2024-02-26T00:48:04;3.10;99.90
51793;DHT22;37850;53.178;6.376;2024-02-26T00:50:36;3.10;99.90
51793;DHT22;37850;53.178;6.376;2024-02-26T00:53:02;3.60;99.90
51793;DHT22;37850;53.178;6.376;2024-02-26T00:55:28;3.10;99.90
51793;DHT22;37850;53.178;6.376;2024-02-26T00:57:54;3.10;99.90
51793;DHT22;37850;53.178;6.376;2024-02-26T01:00:19;3.10;99.90
51793;DHT22;37850;53.178;6.376;2024-02-26T01:02:45;3.10;99.90
51793;DHT22;37850;53.178;6.376;2024-02-26T01:05:14;3.00;99.90
51793;DHT22;37850;53.178;6.376;2024-02-26T01:07:41;3.10;99.90
51793;DHT22;37850;53.178;6.376;2024-02-26T01:10:07;3.00;99.90
51793;DHT22;37850;53.178;6.376;2024-02-26T01:12:34;3.00;99.90
51793;DHT22;37850;53.178;6.376;2024-02-26T01:15:01;3.10;99.90
51793;DHT22;37850;53.178;6.376;2024-02-26T01:17:26;3.00;99.90
51793;DHT22;37850;53.178;6.376;2024-02-26T01:19:52;3.00;99.90
51793;DHT22;37850;53.178;6.376;2024-02-26T01:22:19;3.00;99.90
51793;DHT22;37850;53.178;6.376;2024-02-26T01:24:45;3.00;99.90
51793;DHT22;37850;53.178;6.376;2024-02-26T01:27:10;3.10;99.90
51793;DHT22;37850;53.178;6.376;2024-02-26T01:29:36;3.00;99.90
51793;DHT22;37850;53.178;6.376;2024-02-26T01:32:02;3.00;99.90
51793;DHT22;37850;53.178;6.376;2024-02-26T01:34:30;3.00;99.90
51793;DHT22;37850;53.178;6.376;2024-02-26T01:36:56;3.00;99.90
51793;DHT22;37850;53.178;6.376;2024-02-26T01:39:21;3.00;99.90
51793;DHT22;37850;53.178;6.376;2024-02-26T01:41:48;3.00;99.90
51793;DHT22;37850;53.178;6.376;2024-02-26T01:44:14;3.00;99.90
51793;DHT22;37850;53.178;6.376;2024-02-26T01:46:39;3.10;99.90
51793;DHT22;37850;53.178;6.376;2024-02-26T01:49:06;3.40;99.90
51793;DHT22;37850;53.178;6.376;2024-02-26T01:51:33;3.20;99.90
51793;DHT22;37850;53.178;6.376;2024-02-26T01:54:00;3.00;99.90
51793;DHT22;37850;53.178;6.376;2024-02-26T01:56:28;3.00;99.90
51793;DHT22;37850;53.178;6.376;2024-02-26T01:58:57;3.00;99.90
51793;DHT22;37850;53.178;6.376;2024-02-26T02:01:29;3.00;99.90
51793;DHT22;37850;53.178;6.376;2024-02-26T02:03:57;3.00;99.90
51793;DHT22;37850;53.178;6.376;2024-02-26T02:06:24;3.00;99.90
51793;DHT22;37850;53.178;6.376;2024-02-26T02:08:50;3.00;99.90
51793;DHT22;37850;53.178;6.376;2024-02-26T02:11:17;3.00;99.90
51793;DHT22;37850;53.178;6.376;2024-02-26T02:13:42;3.00;99.90
51793;DHT22;37850;53.178;6.376;2024-02-26T02:16:08;3.50;99.90
51793;DHT22;37850;53.178;6.376;2024-02-26T02:18:34;3.30;99.90
51793;DHT22;37850;53.178;6.376;2024-02-26T02:21:01;3.10;99.90
51793;DHT22;37850;53.178;6.376;2024-02-26T02:23:27;3.00;99.90
51793;DHT22;37850;53.178;6.376;2024-02-26T02:25:54;3.00;99.90
51793;DHT22;37850;53.178;6.376;2024-02-26T02:28:21;3.00;99.90
51793;DHT22;37850;53.178;6.376;2024-02-26T02:30:47;3.00;99.90
51793;DHT22;37850;53.178;6.376;2024-02-26T02:33:14;3.10;99.90
51793;DHT22;37850;53.178;6.376;2024-02-26T02:35:41;3.10;99.90
51793;DHT22;37850;53.178;6.376;2024-02-26T02:38:06;3.10;99.90
51793;DHT22;37850;53.178;6.376;2024-02-26T02:40:32;3.90;99.90
51793;DHT22;37850;53.178;6.376;2024-02-26T02:42:58;3.10;99.90
51793;DHT22;37850;53.178;6.376;2024-02-26T02:45:25;3.10;99.90
51793;DHT22;37850;53.178;6.376;2024-02-26T02:47:51;3.10;99.90
51793;DHT22;37850;53.178;6.376;2024-02-26T02:50:17;3.10;99.90
51793;DHT22;37850;53.178;6.376;2024-02-26T02:52:42;3.10;99.90
51793;DHT22;37850;53.178;6.376;2024-02-26T02:55:08;3.10;99.90
51793;DHT22;37850;53.178;6.376;2024-02-26T02:57:34;2.70;99.90
51793;DHT22;37850;53.178;6.376;2024-02-26T02:59:59;3.30;99.90
51793;DHT22;37850;53.178;6.376;2024-02-26T03:02:25;3.10;99.90
51793;DHT22;37850;53.178;6.376;2024-02-26T03:04:51;3.50;99.90
51793;DHT22;37850;53.178;6.376;2024-02-26T03:07:17;3.10;99.90
51793;DHT22;37850;53.178;6.376;2024-02-26T03:09:42;3.50;99.90
51793;DHT22;37850;53.178;6.376;2024-02-26T03:12:08;3.10;99.90
51793;DHT22;37850;53.178;6.376;2024-02-26T03:14:34;3.10;99.90
51793;DHT22;37850;53.178;6.376;2024-02-26T03:17:00;3.10;99.90
51793;DHT22;37850;53.178;6.376;2024-02-26T03:19:26;3.10;99.90
51793;DHT22;37850;53.178;6.376;2024-02-26T03:21:51;3.10;99.90
51793;DHT22;37850;53.178;6.376;2024-02-26T03:24:17;3.10;99.90
51793;DHT22;37850;53.178;6.376;2024-02-26T03:26:43;3.10;99.90
51793;DHT22;37850;53.178;6.376;2024-02-26T03:29:08;3.10;99.90
51793;DHT22;37850;53.178;6.376;2024-02-26T03:31:34;3.20;99.90
51793;DHT22;37850;53.178;6.376;2024-02-26T03:34:00;3.10;99.90
51793;DHT22;37850;53.178;6.376;2024-02-26T03:36:25;3.10;99.90
51793;DHT22;37850;53.178;6.376;2024-02-26T03:38:52;3.10;99.90
51793;DHT22;37850;53.178;6.376;2024-02-26T03:41:18;3.00;99.90
51793;DHT22;37850;53.178;6.376;2024-02-26T03:43:43;3.10;99.90
51793;DHT22;37850;53.178;6.376;2024-02-26T03:46:10;3.20;99.90
51793;DHT22;37850;53.178;6.376;2024-02-26T03:48:40;3.10;99.90
51793;DHT22;37850;53.178;6.376;2024-02-26T03:51:05;3.00;99.90
51793;DHT22;37850;53.178;6.376;2024-02-26T03:53:31;3.10;99.90
51793;DHT22;37850;53.178;6.376;2024-02-26T03:55:57;3.80;99.90
51793;DHT22;37850;53.178;6.376;2024-02-26T03:58:22;3.10;99.90
51793;DHT22;37850;53.178;6.376;2024-02-26T04:00:48;3.60;99.90
51793;DHT22;37850;53.178;6.376;2024-02-26T04:03:14;3.10;99.90
51793;DHT22;37850;53.178;6.376;2024-02-26T04:05:40;3.00;99.90
51793;DHT22;37850;53.178;6.376;2024-02-26T04:08:06;3.10;99.90
51793;DHT22;37850;53.178;6.376;2024-02-26T04:10:33;3.10;99.90
51793;DHT22;37850;53.178;6.376;2024-02-26T04:13:01;3.20;99.90
51793;DHT22;37850;53.178;6.376;2024-02-26T04:15:26;3.30;99.90
51793;DHT22;37850;53.178;6.376;2024-02-26T04:17:52;3.00;99.90
51793;DHT22;37850;53.178;6.376;2024-02-26T04:20:18;3.10;99.90
51793;DHT22;37850;53.178;6.376;2024-02-26T04:22:44;3.00;99.90
51793;DHT22;37850;53.178;6.376;2024-02-26T04:25:10;3.00;99.90
51793;DHT22;37850;53.178;6.376;2024-02-26T04:27:36;3.30;99.90
51793;DHT22;37850;53.178;6.376;2024-02-26T04:30:02;3.00;99.90
51793;DHT22;37850;53.178;6.376;2024-02-26T04:32:29;3.00;99.90
51793;DHT22;37850;53.178;6.376;2024-02-26T04:34:55;3.00;99.90
51793;DHT22;37850;53.178;6.376;2024-02-26T04:37:21;3.00;99.90
51793;DHT22;37850;53.178;6.376;2024-02-26T04:39:46;3.00;99.90
51793;DHT22;37850;53.178;6.376;2024-02-26T04:42:12;3.00;99.90
51793;DHT22;37850;53.178;6.376;2024-02-26T04:44:38;3.00;99.90
51793;DHT22;37850;53.178;6.376;2024-02-26T04:47:04;3.00;99.90
51793;DHT22;37850;53.178;6.376;2024-02-26T04:49:30;3.90;99.90
51793;DHT22;37850;53.178;6.376;2024-02-26T04:51:55;3.00;99.90
51793;DHT22;37850;53.178;6.376;2024-02-26T04:54:21;3.90;99.90
51793;DHT22;37850;53.178;6.376;2024-02-26T04:56:48;3.00;99.90
51793;DHT22;37850;53.178;6.376;2024-02-26T04:59:14;3.30;99.90
51793;DHT22;37850;53.178;6.376;2024-02-26T05:01:40;3.00;99.90
51793;DHT22;37850;53.178;6.376;2024-02-26T05:04:05;3.00;99.90
51793;DHT22;37850;53.178;6.376;2024-02-26T05:06:31;3.20;99.90
51793;DHT22;37850;53.178;6.376;2024-02-26T05:08:57;3.10;99.90
51793;DHT22;37850;53.178;6.376;2024-02-26T05:11:22;3.00;99.90
51793;DHT22;37850;53.178;6.376;2024-02-26T05:13:48;3.00;99.90
51793;DHT22;37850;53.178;6.376;2024-02-26T05:16:14;3.00;99.90
51793;DHT22;37850;53.178;6.376;2024-02-26T05:18:40;3.10;99.90
51793;DHT22;37850;53.178;6.376;2024-02-26T05:21:05;3.50;99.90
51793;DHT22;37850;53.178;6.376;2024-02-26T05:23:31;3.00;99.90
51793;DHT22;37850;53.178;6.376;2024-02-26T05:25:57;3.10;99.90
51793;DHT22;37850;53.178;6.376;2024-02-26T05:28:22;3.10;99.90
51793;DHT22;37850;53.178;6.376;2024-02-26T05:30:48;3.10;99.90
51793;DHT22;37850;53.178;6.376;2024-02-26T05:33:14;3.00;99.90
51793;DHT22;37850;53.178;6.376;2024-02-26T05:35:40;3.10;99.90
51793;DHT22;37850;53.178;6.376;2024-02-26T05:38:06;3.10;99.90
51793;DHT22;37850;53.178;6.376;2024-02-26T05:40:31;3.40;99.90
51793;DHT22;37850;53.178;6.376;2024-02-26T05:42:57;3.10;99.90
51793;DHT22;37850;53.178;6.376;2024-02-26T05:45:23;3.10;99.90
51793;DHT22;37850;53.178;6.376;2024-02-26T05:47:48;3.10;99.90
51793;DHT22;37850;53.178;6.376;2024-02-26T05:50:15;3.10;99.90
51793;DHT22;37850;53.178;6.376;2024-02-26T05:52:42;3.10;99.90
51793;DHT22;37850;53.178;6.376;2024-02-26T05:55:08;3.10;99.90
51793;DHT22;37850;53.178;6.376;2024-02-26T05:57:36;3.10;99.90
51793;DHT22;37850;53.178;6.376;2024-02-26T06:00:02;3.10;99.90
51793;DHT22;37850;53.178;6.376;2024-02-26T06:02:30;3.10;99.90
51793;DHT22;37850;53.178;6.376;2024-02-26T06:04:57;3.10;99.90
51793;DHT22;37850;53.178;6.376;2024-02-26T06:07:23;3.10;99.90
51793;DHT22;37850;53.178;6.376;2024-02-26T06:09:49;3.00;99.90
51793;DHT22;37850;53.178;6.376;2024-02-26T06:12:15;3.10;99.90
51793;DHT22;37850;53.178;6.376;2024-02-26T06:14:43;3.10;99.90
51793;DHT22;37850;53.178;6.376;2024-02-26T06:17:09;3.40;99.90
51793;DHT22;37850;53.178;6.376;2024-02-26T06:19:34;3.10;99.90
51793;DHT22;37850;53.178;6.376;2024-02-26T06:22:00;3.10;99.90
51793;DHT22;37850;53.178;6.376;2024-02-26T06:24:26;3.50;99.90
51793;DHT22;37850;53.178;6.376;2024-02-26T06:26:52;3.20;99.90
51793;DHT22;37850;53.178;6.376;2024-02-26T06:29:17;3.20;99.90
51793;DHT22;37850;53.178;6.376;2024-02-26T06:31:43;3.10;99.90
51793;DHT22;37850;53.178;6.376;2024-02-26T06:34:09;4.00;99.90
51793;DHT22;37850;53.178;6.376;2024-02-26T06:36:34;3.20;99.90
51793;DHT22;37850;53.178;6.376;2024-02-26T06:39:00;3.60;99.90
51793;DHT22;37850;53.178;6.376;2024-02-26T06:41:26;3.30;99.90
51793;DHT22;37850;53.178;6.376;2024-02-26T06:43:55;3.20;99.90
51793;DHT22;37850;53.178;6.376;2024-02-26T06:46:21;3.20;99.90
51793;DHT22;37850;53.178;6.376;2024-02-26T06:48:48;3.20;99.90
51793;DHT22;37850;53.178;6.376;2024-02-26T06:51:15;3.30;99.90
51793;DHT22;37850;53.178;6.376;2024-02-26T06:53:40;3.20;99.90
51793;DHT22;37850;53.178;6.376;2024-02-26T06:56:06;3.30;99.90
51793;DHT22;37850;53.178;6.376;2024-02-26T06:58:32;4.10;99.90
51793;DHT22;37850;53.178;6.376;2024-02-26T07:00:59;3.30;99.90
51793;DHT22;37850;53.178;6.376;2024-02-26T07:03:28;3.60;99.90
51793;DHT22;37850;53.178;6.376;2024-02-26T07:05:55;3.20;99.90
51793;DHT22;37850;53.178;6.376;2024-02-26T07:08:21;3.20;99.90
51793;DHT22;37850;53.178;6.376;2024-02-26T07:10:47;3.30;99.90
51793;DHT22;37850;53.178;6.376;2024-02-26T07:13:12;3.30;99.90
51793;DHT22;37850;53.178;6.376;2024-02-26T07:15:38;3.30;99.90
51793;DHT22;37850;53.178;6.376;2024-02-26T07:18:04;3.30;99.90
51793;DHT22;37850;53.178;6.376;2024-02-26T07:20:30;3.30;99.90
51793;DHT22;37850;53.178;6.376;2024-02-26T07:22:57;3.30;99.90
51793;DHT22;37850;53.178;6.376;2024-02-26T07:25:23;4.20;99.90
51793;DHT22;37850;53.178;6.376;2024-02-26T07:27:53;3.40;99.90
51793;DHT22;37850;53.178;6.376;2024-02-26T07:30:18;3.40;99.90
51793;DHT22;37850;53.178;6.376;2024-02-26T07:32:44;3.40;99.90
51793;DHT22;37850;53.178;6.376;2024-02-26T07:35:10;3.40;99.90
51793;DHT22;37850;53.178;6.376;2024-02-26T07:37:36;3.40;99.90
51793;DHT22;37850;53.178;6.376;2024-02-26T07:40:01;3.40;99.90
51793;DHT22;37850;53.178;6.376;2024-02-26T07:42:28;3.70;99.90
51793;DHT22;37850;53.178;6.376;2024-02-26T07:44:54;3.70;99.90
51793;DHT22;37850;53.178;6.376;2024-02-26T07:47:19;3.40;99.90
51793;DHT22;37850;53.178;6.376;2024-02-26T07:49:46;3.80;99.90
51793;DHT22;37850;53.178;6.376;2024-02-26T07:52:12;3.70;99.90
51793;DHT22;37850;53.178;6.376;2024-02-26T07:54:37;4.40;99.90
51793;DHT22;37850;53.178;6.376;2024-02-26T07:57:03;3.50;99.90
51793;DHT22;37850;53.178;6.376;2024-02-26T07:59:31;3.50;99.90
51793;DHT22;37850;53.178;6.376;2024-02-26T08:01:57;3.50;99.90
51793;DHT22;37850;53.178;6.376;2024-02-26T08:04:23;3.50;99.90
51793;DHT22;37850;53.178;6.376;2024-02-26T08:06:49;3.50;99.90
51793;DHT22;37850;53.178;6.376;2024-02-26T08:09:14;3.50;99.90
51793;DHT22;37850;53.178;6.376;2024-02-26T08:11:40;3.50;99.90
51793;DHT22;37850;53.178;6.376;2024-02-26T08:14:06;3.50;99.90
51793;DHT22;37850;53.178;6.376;2024-02-26T08:16:32;3.50;99.90
51793;DHT22;37850;53.178;6.376;2024-02-26T08:18:57;3.50;99.90
51793;DHT22;37850;53.178;6.376;2024-02-26T08:21:23;3.60;99.90
51793;DHT22;37850;53.178;6.376;2024-02-26T08:23:49;3.60;99.90
51793;DHT22;37850;53.178;6.376;2024-02-26T08:26:15;3.60;99.90
51793;DHT22;37850;53.178;6.376;2024-02-26T08:28:41;3.60;99.90
51793;DHT22;37850;53.178;6.376;2024-02-26T08:31:10;3.60;99.90
51793;DHT22;37850;53.178;6.376;2024-02-26T08:33:35;3.60;99.90
51793;DHT22;37850;53.178;6.376;2024-02-26T08:36:05;3.60;99.90
51793;DHT22;37850;53.178;6.376;2024-02-26T08:38:31;3.70;99.90
51793;DHT22;37850;53.178;6.376;2024-02-26T08:40:57;3.70;99.90
51793;DHT22;37850;53.178;6.376;2024-02-26T08:43:23;3.70;99.90
51793;DHT22;37850;53.178;6.376;2024-02-26T08:45:48;3.70;99.90
51793;DHT22;37850;53.178;6.376;2024-02-26T08:48:14;3.70;99.90
51793;DHT22;37850;53.178;6.376;2024-02-26T08:50:41;3.70;99.90
51793;DHT22;37850;53.178;6.376;2024-02-26T08:53:06;3.70;99.90
51793;DHT22;37850;53.178;6.376;2024-02-26T08:55:33;3.80;99.90
51793;DHT22;37850;53.178;6.376;2024-02-26T08:57:59;3.80;99.90
51793;DHT22;37850;53.178;6.376;2024-02-26T09:00:24;4.80;99.90
51793;DHT22;37850;53.178;6.376;2024-02-26T09:02:50;3.80;99.90
51793;DHT22;37850;53.178;6.376;2024-02-26T09:05:16;4.00;99.90
51793;DHT22;37850;53.178;6.376;2024-02-26T09:07:41;3.90;99.90
51793;DHT22;37850;53.178;6.376;2024-02-26T09:10:08;3.90;99.90
51793;DHT22;37850;53.178;6.376;2024-02-26T09:12:36;4.00;99.90
51793;DHT22;37850;53.178;6.376;2024-02-26T09:15:03;4.00;99.90
51793;DHT22;37850;53.178;6.376;2024-02-26T09:17:29;4.00;99.90
51793;DHT22;37850;53.178;6.376;2024-02-26T09:19:56;4.10;99.90
51793;DHT22;37850;53.178;6.376;2024-02-26T09:22:22;4.10;99.90
51793;DHT22;37850;53.178;6.376;2024-02-26T09:24:48;4.10;99.90
51793;DHT22;37850;53.178;6.376;2024-02-26T09:27:15;4.10;99.90
51793;DHT22;37850;53.178;6.376;2024-02-26T09:29:42;5.20;99.90
51793;DHT22;37850;53.178;6.376;2024-02-26T09:32:07;4.20;99.90
51793;DHT22;37850;53.178;6.376;2024-02-26T09:34:33;4.20;99.90
51793;DHT22;37850;53.178;6.376;2024-02-26T09:36:59;4.20;99.90
51793;DHT22;37850;53.178;6.376;2024-02-26T09:39:26;4.30;99.90
51793;DHT22;37850;53.178;6.376;2024-02-26T09:41:53;5.20;99.90
51793;DHT22;37850;53.178;6.376;2024-02-26T09:44:20;4.90;99.90
51793;DHT22;37850;53.178;6.376;2024-02-26T09:46:47;4.30;99.90
51793;DHT22;37850;53.178;6.376;2024-02-26T09:49:15;4.30;99.90
51793;DHT22;37850;53.178;6.376;2024-02-26T09:51:41;4.40;99.90
51793;DHT22;37850;53.178;6.376;2024-02-26T09:54:09;4.40;99.90
51793;DHT22;37850;53.178;6.376;2024-02-26T09:56:40;4.40;99.90
51793;DHT22;37850;53.178;6.376;2024-02-26T09:59:15;4.50;99.90
51793;DHT22;37850;53.178;6.376;2024-02-26T10:01:42;4.50;99.90
51793;DHT22;37850;53.178;6.376;2024-02-26T10:04:10;4.50;99.90
51793;DHT22;37850;53.178;6.376;2024-02-26T10:06:37;4.50;99.90
51793;DHT22;37850;53.178;6.376;2024-02-26T10:09:03;4.50;99.90
51793;DHT22;37850;53.178;6.376;2024-02-26T10:11:32;4.50;99.90
51793;DHT22;37850;53.178;6.376;2024-02-26T10:14:01;5.50;99.90
51793;DHT22;37850;53.178;6.376;2024-02-26T10:16:27;4.60;99.90
51793;DHT22;37850;53.178;6.376;2024-02-26T10:18:56;4.60;99.90
51793;DHT22;37850;53.178;6.376;2024-02-26T10:21:22;4.60;99.90
51793;DHT22;37850;53.178;6.376;2024-02-26T10:23:49;4.60;99.90
51793;DHT22;37850;53.178;6.376;2024-02-26T10:26:16;4.70;99.90
51793;DHT22;37850;53.178;6.376;2024-02-26T10:28:43;4.70;99.90
51793;DHT22;37850;53.178;6.376;2024-02-26T10:31:10;5.60;99.90
51793;DHT22;37850;53.178;6.376;2024-02-26T10:33:36;4.70;99.90
51793;DHT22;37850;53.178;6.376;2024-02-26T10:36:07;4.80;99.90
51793;DHT22;37850;53.178;6.376;2024-02-26T10:38:37;4.70;99.90
51793;DHT22;37850;53.178;6.376;2024-02-26T10:41:03;4.70;99.90
51793;DHT22;37850;53.178;6.376;2024-02-26T10:43:29;5.00;99.90
51793;DHT22;37850;53.178;6.376;2024-02-26T10:45:56;4.70;99.90
51793;DHT22;37850;53.178;6.376;2024-02-26T10:48:22;4.80;99.90
51793;DHT22;37850;53.178;6.376;2024-02-26T10:50:48;4.80;99.90
51793;DHT22;37850;53.178;6.376;2024-02-26T10:53:19;4.80;99.90
51793;DHT22;37850;53.178;6.376;2024-02-26T10:55:49;4.80;99.90
51793;DHT22;37850;53.178;6.376;2024-02-26T10:58:17;4.80;99.90
51793;DHT22;37850;53.178;6.376;2024-02-26T11:00:43;4.80;99.90
51793;DHT22;37850;53.178;6.376;2024-02-26T11:03:11;4.90;99.90
51793;DHT22;37850;53.178;6.376;2024-02-26T11:05:39;4.90;99.90
51793;DHT22;37850;53.178;6.376;2024-02-26T11:08:06;4.90;99.90
51793;DHT22;37850;53.178;6.376;2024-02-26T11:10:32;4.90;99.90
51793;DHT22;37850;53.178;6.376;2024-02-26T11:13:01;4.90;99.90
51793;DHT22;37850;53.178;6.376;2024-02-26T11:15:32;4.90;99.90
51793;DHT22;37850;53.178;6.376;2024-02-26T11:17:59;4.90;99.90
51793;DHT22;37850;53.178;6.376;2024-02-26T11:20:28;4.90;99.90
51793;DHT22;37850;53.178;6.376;2024-02-26T11:22:55;4.90;99.90
51793;DHT22;37850;53.178;6.376;2024-02-26T11:25:21;4.90;99.90
51793;DHT22;37850;53.178;6.376;2024-02-26T11:27:52;5.10;99.90
51793;DHT22;37850;53.178;6.376;2024-02-26T11:30:20;5.00;99.90
51793;DHT22;37850;53.178;6.376;2024-02-26T11:32:47;5.00;99.90
51793;DHT22;37850;53.178;6.376;2024-02-26T11:35:13;5.00;99.90
51793;DHT22;37850;53.178;6.376;2024-02-26T11:37:54;5.00;99.90
51793;DHT22;37850;53.178;6.376;2024-02-26T11:40:23;5.10;99.90
51793;DHT22;37850;53.178;6.376;2024-02-26T11:42:49;5.10;99.90
51793;DHT22;37850;53.178;6.376;2024-02-26T11:48:01;5.20;99.90
51793;DHT22;37850;53.178;6.376;2024-02-26T11:50:41;5.10;99.90
51793;DHT22;37850;53.178;6.376;2024-02-26T11:53:30;5.20;99.90
51793;DHT22;37850;53.178;6.376;2024-02-26T11:58:41;5.20;99.90
51793;DHT22;37850;53.178;6.376;2024-02-26T12:01:36;4.90;99.90
51793;DHT22;37850;53.178;6.376;2024-02-26T12:04:04;5.20;99.90
51793;DHT22;37850;53.178;6.376;2024-02-26T12:06:30;5.30;99.90
51793;DHT22;37850;53.178;6.376;2024-02-26T12:08:56;5.20;99.90
51793;DHT22;37850;53.178;6.376;2024-02-26T12:11:22;5.30;99.90
51793;DHT22;37850;53.178;6.376;2024-02-26T12:13:48;5.30;99.90
51793;DHT22;37850;53.178;6.376;2024-02-26T12:16:38;5.30;99.90
51793;DHT22;37850;53.178;6.376;2024-02-26T12:19:09;5.30;99.90
51793;DHT22;37850;53.178;6.376;2024-02-26T12:21:38;5.30;99.90
51793;DHT22;37850;53.178;6.376;2024-02-26T12:24:11;5.30;99.90
51793;DHT22;37850;53.178;6.376;2024-02-26T12:26:39;5.30;99.90
51793;DHT22;37850;53.178;6.376;2024-02-26T12:29:04;5.20;99.90
51793;DHT22;37850;53.178;6.376;2024-02-26T12:31:31;5.30;99.90
51793;DHT22;37850;53.178;6.376;2024-02-26T12:33:58;5.30;99.90
51793;DHT22;37850;53.178;6.376;2024-02-26T12:36:24;5.30;99.90
51793;DHT22;37850;53.178;6.376;2024-02-26T12:38:51;5.30;99.90
51793;DHT22;37850;53.178;6.376;2024-02-26T12:41:17;5.20;99.90
51793;DHT22;37850;53.178;6.376;2024-02-26T12:43:43;5.20;99.90
51793;DHT22;37850;53.178;6.376;2024-02-26T12:46:09;5.20;99.90
51793;DHT22;37850;53.178;6.376;2024-02-26T12:48:35;5.20;99.90
51793;DHT22;37850;53.178;6.376;2024-02-26T12:51:01;5.20;99.90
51793;DHT22;37850;53.178;6.376;2024-02-26T12:53:27;5.20;99.90
51793;DHT22;37850;53.178;6.376;2024-02-26T12:55:54;5.50;99.90
51793;DHT22;37850;53.178;6.376;2024-02-26T12:58:21;5.20;99.90
51793;DHT22;37850;53.178;6.376;2024-02-26T13:00:51;5.20;99.90
51793;DHT22;37850;53.178;6.376;2024-02-26T13:03:17;5.20;99.90
51793;DHT22;37850;53.178;6.376;2024-02-26T13:05:44;5.10;99.90
51793;DHT22;37850;53.178;6.376;2024-02-26T13:08:16;5.20;99.90
51793;DHT22;37850;53.178;6.376;2024-02-26T13:10:43;5.40;99.90
51793;DHT22;37850;53.178;6.376;2024-02-26T13:13:08;5.10;99.90
51793;DHT22;37850;53.178;6.376;2024-02-26T13:15:34;5.80;99.90
51793;DHT22;37850;53.178;6.376;2024-02-26T13:18:12;5.10;99.90
51793;DHT22;37850;53.178;6.376;2024-02-26T13:20:38;5.10;99.90
51793;DHT22;37850;53.178;6.376;2024-02-26T13:23:11;5.10;99.90
51793;DHT22;37850;53.178;6.376;2024-02-26T13:25:37;6.00;99.90
51793;DHT22;37850;53.178;6.376;2024-02-26T13:28:14;5.20;99.90
51793;DHT22;37850;53.178;6.376;2024-02-26T13:30:42;5.10;99.90
51793;DHT22;37850;53.178;6.376;2024-02-26T13:33:15;5.80;99.90
51793;DHT22;37850;53.178;6.376;2024-02-26T13:35:41;5.10;99.90
51793;DHT22;37850;53.178;6.376;2024-02-26T13:38:07;6.20;99.90
51793;DHT22;37850;53.178;6.376;2024-02-26T13:40:33;5.20;99.90
51793;DHT22;37850;53.178;6.376;2024-02-26T13:43:00;5.20;99.90
51793;DHT22;37850;53.178;6.376;2024-02-26T13:45:26;5.10;99.90
51793;DHT22;37850;53.178;6.376;2024-02-26T13:47:52;5.40;99.90
51793;DHT22;37850;53.178;6.376;2024-02-26T13:50:17;5.20;99.90
51793;DHT22;37850;53.178;6.376;2024-02-26T13:52:47;5.10;99.90
51793;DHT22;37850;53.178;6.376;2024-02-26T13:55:13;5.10;99.90
51793;DHT22;37850;53.178;6.376;2024-02-26T13:57:40;5.10;99.90
51793;DHT22;37850;53.178;6.376;2024-02-26T14:00:07;5.30;99.90
51793;DHT22;37850;53.178;6.376;2024-02-26T14:02:33;5.10;99.90
51793;DHT22;37850;53.178;6.376;2024-02-26T14:05:02;5.10;99.90
51793;DHT22;37850;53.178;6.376;2024-02-26T14:07:29;5.10;99.90
51793;DHT22;37850;53.178;6.376;2024-02-26T14:09:58;5.10;99.90
51793;DHT22;37850;53.178;6.376;2024-02-26T14:12:24;5.10;99.90
51793;DHT22;37850;53.178;6.376;2024-02-26T14:14:50;5.10;99.90
51793;DHT22;37850;53.178;6.376;2024-02-26T14:17:15;5.00;99.90
51793;DHT22;37850;53.178;6.376;2024-02-26T14:19:42;5.10;99.90
51793;DHT22;37850;53.178;6.376;2024-02-26T14:22:13;5.90;99.90
51793;DHT22;37850;53.178;6.376;2024-02-26T14:24:39;5.00;99.90
51793;DHT22;37850;53.178;6.376;2024-02-26T14:27:13;5.40;99.90
51793;DHT22;37850;53.178;6.376;2024-02-26T14:29:43;5.00;99.90
51793;DHT22;37850;53.178;6.376;2024-02-26T14:32:09;5.00;99.90
51793;DHT22;37850;53.178;6.376;2024-02-26T14:34:35;5.00;99.90
51793;DHT22;37850;53.178;6.376;2024-02-26T14:37:01;5.30;99.90
51793;DHT22;37850;53.178;6.376;2024-02-26T14:39:27;5.00;99.90
51793;DHT22;37850;53.178;6.376;2024-02-26T14:41:53;5.10;99.90
51793;DHT22;37850;53.178;6.376;2024-02-26T14:44:19;4.90;99.90
51793;DHT22;37850;53.178;6.376;2024-02-26T14:46:44;5.00;99.90
51793;DHT22;37850;53.178;6.376;2024-02-26T14:49:10;4.90;99.90
51793;DHT22;37850;53.178;6.376;2024-02-26T14:51:37;5.30;99.90
51793;DHT22;37850;53.178;6.376;2024-02-26T14:54:03;4.90;99.90
51793;DHT22;37850;53.178;6.376;2024-02-26T14:56:29;4.90;99.90
51793;DHT22;37850;53.178;6.376;2024-02-26T14:58:55;5.40;99.90
51793;DHT22;37850;53.178;6.376;2024-02-26T15:01:21;5.00;99.90
51793;DHT22;37850;53.178;6.376;2024-02-26T15:03:46;5.00;99.90
51793;DHT22;37850;53.178;6.376;2024-02-26T15:06:13;5.90;99.90
51793;DHT22;37850;53.178;6.376;2024-02-26T15:08:39;5.00;99.90
51793;DHT22;37850;53.178;6.376;2024-02-26T15:11:05;5.00;99.90
51793;DHT22;37850;53.178;6.376;2024-02-26T15:13:31;5.00;99.90
51793;DHT22;37850;53.178;6.376;2024-02-26T15:15:56;5.10;99.90
51793;DHT22;37850;53.178;6.376;2024-02-26T15:18:22;5.00;99.90
51793;DHT22;37850;53.178;6.376;2024-02-26T15:20:50;5.80;99.90
51793;DHT22;37850;53.178;6.376;2024-02-26T15:23:16;5.00;99.90
51793;DHT22;37850;53.178;6.376;2024-02-26T15:25:43;5.00;99.90
51793;DHT22;37850;53.178;6.376;2024-02-26T15:28:09;5.00;99.90
51793;DHT22;37850;53.178;6.376;2024-02-26T15:30:40;5.90;99.90
51793;DHT22;37850;53.178;6.376;2024-02-26T15:33:06;5.00;99.90
51793;DHT22;37850;53.178;6.376;2024-02-26T15:35:32;5.00;99.90
51793;DHT22;37850;53.178;6.376;2024-02-26T15:37:58;4.90;99.90
51793;DHT22;37850;53.178;6.376;2024-02-26T15:40:24;4.90;99.90
51793;DHT22;37850;53.178;6.376;2024-02-26T15:42:50;4.90;99.90
51793;DHT22;37850;53.178;6.376;2024-02-26T15:45:16;4.90;99.90
51793;DHT22;37850;53.178;6.376;2024-02-26T15:47:42;5.00;99.90